Terminal Aerodrome Forecast
Issued by NWS

Current Version | Previous Version | Text Only | Print | Product List | Glossary Off
Versions: 1 2 3 4 5 6 7 8 9 10 11 12 13 14 15 16 17

000
FTUS41 KPBZ 271735
TAFMGW
TAF
KMGW 271735Z 2718/2818 02005KT P6SM VCSH BKN035
     FM280000 VRB03KT P6SM SCT050
     FM280900 00000KT 4SM BR SKC
     FM281300 10005KT P6SM SCT035=

USA.gov is the U.S. government's official web portal to all federal, state and local government web resources and services.